createdAt,value
2022-10-01T00:02:37.934Z,100333.35
2022-10-01T00:06:07.715Z,100333.04
2022-10-01T00:09:35.438Z,100330.23
2022-10-01T00:13:02.415Z,100334.51
2022-10-01T00:16:31.365Z,100333.94
2022-10-01T00:19:58.461Z,100327.27
2022-10-01T00:23:25.921Z,100328.15
2022-10-01T00:26:53.426Z,100324.96
2022-10-01T00:30:21.806Z,100323.57
2022-10-01T00:33:49.079Z,100323.19
2022-10-01T00:37:19.196Z,100321.58
2022-10-01T00:40:45.680Z,100317.88
2022-10-01T00:44:38.878Z,100318.93
2022-10-01T00:48:06.117Z,100315.88
2022-10-01T00:51:38.740Z,100314.98
2022-10-01T00:55:09.899Z,100318.68
2022-10-01T00:58:37.313Z,100324.44
2022-10-01T01:02:08.716Z,100321.14
2022-10-01T01:05:36.186Z,100318.60
2022-10-01T01:09:03.737Z,100319.77
2022-10-01T01:12:52.517Z,100317.98
2022-10-01T01:16:28.144Z,100316.14
2022-10-01T01:20:19.438Z,100313.48
2022-10-01T01:24:08.055Z,100317.14
2022-10-01T01:27:42.631Z,100312.92
2022-10-01T01:31:14.953Z,100315.30
2022-10-01T01:34:46.216Z,100311.91
2022-10-01T01:38:17.550Z,100313.01
2022-10-01T01:41:50.506Z,100308.56
2022-10-01T01:45:24.274Z,100305.55
2022-10-01T01:48:54.282Z,100298.91
2022-10-01T01:52:21.778Z,100310.80
2022-10-01T01:55:50.709Z,100311.09
2022-10-01T01:59:19.807Z,100309.27
2022-10-01T02:02:51.957Z,100307.23
2022-10-01T02:06:30.201Z,100305.48
2022-10-01T02:10:07.326Z,100307.66
2022-10-01T02:13:44.891Z,100304.92
2022-10-01T02:17:18.326Z,100305.39
2022-10-01T02:20:51.714Z,100310.36
2022-10-01T02:24:29.138Z,100307.59
2022-10-01T02:28:07.964Z,100308.08
2022-10-01T02:31:38.162Z,100306.85
2022-10-01T02:35:08.187Z,100301.40
2022-10-01T02:38:37.943Z,100299.70
2022-10-01T02:42:08.352Z,100291.73
2022-10-01T02:45:38.039Z,100294.21
2022-10-01T02:49:05.877Z,100290.04
2022-10-01T02:52:40.202Z,100283.78
2022-10-01T02:56:09.781Z,100274.61
2022-10-01T02:59:36.509Z,100272.66
2022-10-01T03:03:03.309Z,100266.52
2022-10-01T03:06:29.904Z,100260.70
2022-10-01T03:09:56.977Z,100255.45
2022-10-01T03:13:25.511Z,100252.89
2022-10-01T03:16:53.018Z,100243.45
2022-10-01T03:20:20.184Z,100237.65
2022-10-01T03:23:47.083Z,100235.70
2022-10-01T03:27:13.968Z,100237.95
2022-10-01T03:30:40.815Z,100237.27
2022-10-01T03:34:07.980Z,100238.20
2022-10-01T03:37:34.577Z,100239.88
2022-10-01T03:41:01.733Z,100239.17
2022-10-01T03:44:28.690Z,100238.15
2022-10-01T03:47:58.249Z,100235.63
2022-10-01T03:51:25.060Z,100233.69
2022-10-01T03:54:52.000Z,100235.61
2022-10-01T03:58:19.972Z,100236.69
2022-10-01T04:01:47.268Z,100237.34
2022-10-01T04:05:15.013Z,100235.30
2022-10-01T04:08:42.935Z,100236.18
2022-10-01T04:12:11.193Z,100237.65
2022-10-01T04:15:38.066Z,100233.06
2022-10-01T04:19:05.204Z,100235.18
2022-10-01T04:22:32.286Z,100236.91
2022-10-01T04:26:02.766Z,100230.92
2022-10-01T04:29:30.109Z,100222.45
2022-10-01T04:32:57.287Z,100218.46
2022-10-01T04:36:24.464Z,100215.30
2022-10-01T04:39:51.399Z,100213.99
2022-10-01T04:43:18.402Z,100217.96
2022-10-01T04:46:45.183Z,100216.80
2022-10-01T04:50:12.781Z,100217.56
2022-10-01T04:53:39.920Z,100218.66
2022-10-01T04:57:07.145Z,100220.50
2022-10-01T05:00:34.439Z,100221.98
2022-10-01T05:04:01.309Z,100227.88
2022-10-01T05:07:28.185Z,100227.65
2022-10-01T05:10:55.088Z,100227.27
2022-10-01T05:14:27.060Z,100225.02
2022-10-01T05:17:54.134Z,100229.22
2022-10-01T05:21:21.252Z,100225.23
2022-10-01T05:24:49.328Z,100220.66
2022-10-01T05:28:21.426Z,100219.52
2022-10-01T05:31:50.477Z,100215.94
2022-10-01T05:35:17.099Z,100212.60
2022-10-01T05:38:44.094Z,100212.58
2022-10-01T05:42:10.794Z,100210.79
2022-10-01T05:45:38.436Z,100211.48
2022-10-01T05:49:07.353Z,100215.16
2022-10-01T05:52:37.033Z,100212.14
2022-10-01T05:56:04.082Z,100209.89
2022-10-01T05:59:31.957Z,100206.31
2022-10-01T06:03:00.115Z,100199.87
2022-10-01T06:06:28.061Z,100195.48
2022-10-01T06:09:55.010Z,100189.44
2022-10-01T06:13:21.956Z,100188.73
2022-10-01T06:16:48.642Z,100191.05
2022-10-01T06:20:18.628Z,100187.09
2022-10-01T06:23:46.547Z,100185.52
2022-10-01T06:27:13.619Z,100183.64
2022-10-01T06:30:42.559Z,100176.62
2022-10-01T06:34:09.580Z,100174.84
2022-10-01T06:37:40.007Z,100172.31
2022-10-01T06:41:07.440Z,100167.19
2022-10-01T06:44:34.260Z,100168.30
2022-10-01T06:48:03.286Z,100164.71
2022-10-01T06:51:44.139Z,100162.98
2022-10-01T06:55:16.507Z,100164.23
2022-10-01T06:58:44.110Z,100160.06
2022-10-01T07:02:21.780Z,100150.98
2022-10-01T07:05:49.275Z,100150.55
2022-10-01T07:09:15.708Z,100141.96
2022-10-01T07:12:43.258Z,100136.45
2022-10-01T07:16:10.441Z,100135.89
2022-10-01T07:19:37.408Z,100132.67
2022-10-01T07:23:04.676Z,100132.85
2022-10-01T07:26:31.327Z,100131.49
2022-10-01T07:29:59.366Z,100127.66
2022-10-01T07:33:26.244Z,100130.35
2022-10-01T07:36:54.574Z,100130.09
2022-10-01T07:40:22.088Z,100121.57
2022-10-01T07:43:50.069Z,100115.60
2022-10-01T07:47:16.646Z,100111.32
2022-10-01T07:50:49.821Z,100103.79
2022-10-01T07:54:17.580Z,100097.98
2022-10-01T07:57:43.954Z,100101.01
2022-10-01T08:01:10.792Z,100092.85
2022-10-01T08:04:55.308Z,100086.92
2022-10-01T08:08:24.486Z,100083.43
2022-10-01T08:11:51.604Z,100084.38
2022-10-01T08:15:20.587Z,100083.06
2022-10-01T08:18:49.107Z,100080.02
2022-10-01T08:22:15.808Z,100079.89
2022-10-01T08:25:46.168Z,100076.55
2022-10-01T08:29:16.938Z,100071.32
2022-10-01T08:32:44.089Z,100070.42
2022-10-01T08:36:12.255Z,100062.66
2022-10-01T08:39:39.764Z,100055.05
2022-10-01T08:43:11.323Z,100052.43
2022-10-01T08:46:39.529Z,100042.63
2022-10-01T08:50:14.605Z,100042.67
2022-10-01T08:53:46.060Z,100037.93
2022-10-01T08:57:19.668Z,100030.06
2022-10-01T09:00:49.612Z,100023.90
2022-10-01T09:04:16.758Z,100018.98
2022-10-01T09:08:08.705Z,100018.09
2022-10-01T09:11:45.920Z,100010.14
2022-10-01T09:15:33.295Z,100000.09
2022-10-01T09:19:10.853Z,99991.29
2022-10-01T09:22:42.768Z,99983.80
2022-10-01T09:26:13.975Z,99983.92
2022-10-01T09:29:46.323Z,99976.48
2022-10-01T09:33:18.913Z,99976.44
2022-10-01T09:36:59.719Z,99973.09
2022-10-01T09:40:37.431Z,99969.36
2022-10-01T09:44:04.628Z,99967.56
2022-10-01T09:47:36.700Z,99964.17
2022-10-01T09:51:10.616Z,99964.48
2022-10-01T09:54:46.277Z,99962.46
2022-10-01T09:58:18.047Z,99959.38
2022-10-01T10:01:48.289Z,99960.61
2022-10-01T10:05:18.294Z,99962.87
2022-10-01T10:08:48.800Z,99958.73
2022-10-01T10:12:31.447Z,99957.24
2022-10-01T10:16:00.067Z,99952.69
2022-10-01T10:19:29.666Z,99951.30
2022-10-01T10:23:06.993Z,99952.64
2022-10-01T10:26:39.374Z,99942.91
2022-10-01T10:30:15.626Z,99936.77
2022-10-01T10:33:55.759Z,99939.30
2022-10-01T10:37:32.906Z,99934.75
2022-10-01T10:41:00.423Z,99922.21
2022-10-01T10:44:36.415Z,99914.90
2022-10-01T10:48:06.960Z,99912.56
2022-10-01T10:51:46.097Z,99906.62
2022-10-01T10:55:30.412Z,99902.48
2022-10-01T10:59:08.552Z,99898.02
2022-10-01T11:02:35.879Z,99891.23
2022-10-01T11:06:11.568Z,99889.33
2022-10-01T11:10:00.734Z,99886.15
2022-10-01T11:13:43.401Z,99877.00
2022-10-01T11:17:27.421Z,99874.58
2022-10-01T11:21:05.530Z,99864.86
2022-10-01T11:24:53.477Z,99854.35
2022-10-01T11:28:35.100Z,99847.54
2022-10-01T11:32:12.357Z,99842.17
2022-10-01T11:35:55.607Z,99839.39
2022-10-01T11:39:26.184Z,99830.23
2022-10-01T11:42:58.777Z,99824.48
2022-10-01T11:46:50.414Z,99823.42
2022-10-01T11:50:22.150Z,99817.98
2022-10-01T11:53:53.217Z,99815.19
2022-10-01T11:57:38.645Z,99809.59
2022-10-01T12:01:12.529Z,99807.28
2022-10-01T12:04:43.657Z,99800.15
2022-10-01T12:08:19.092Z,99794.70
2022-10-01T12:11:56.217Z,99795.40
2022-10-01T12:15:30.022Z,99788.43
2022-10-01T12:19:03.677Z,99783.56
2022-10-01T12:22:31.345Z,99776.29
2022-10-01T12:26:06.645Z,99770.89
2022-10-01T12:29:42.168Z,99764.55
2022-10-01T12:33:32.560Z,99756.98
2022-10-01T12:37:14.197Z,99758.02
2022-10-01T12:40:48.083Z,99755.10
2022-10-01T12:44:44.760Z,99747.22
2022-10-01T12:48:19.198Z,99740.05
2022-10-01T12:51:49.064Z,99732.80
2022-10-01T12:55:50.369Z,99725.15
2022-10-01T12:59:41.184Z,99714.05
2022-10-01T13:03:37.112Z,99711.71
2022-10-01T13:07:20.907Z,99702.28
2022-10-01T13:11:02.604Z,99706.65
2022-10-01T13:14:33.464Z,99704.42
2022-10-01T13:18:07.846Z,99700.35
2022-10-01T13:21:49.486Z,99701.36
2022-10-01T13:25:31.906Z,99702.05
2022-10-01T13:29:17.518Z,99694.75
2022-10-01T13:32:58.207Z,99681.58
2022-10-01T13:36:37.743Z,99681.06
2022-10-01T13:40:22.471Z,99675.45
2022-10-01T13:43:57.034Z,99671.94
2022-10-01T13:47:25.693Z,99672.02
2022-10-01T13:51:05.357Z,99671.92
2022-10-01T13:54:44.232Z,99667.35
2022-10-01T13:58:25.520Z,99662.13
2022-10-01T14:01:52.211Z,99660.60
2022-10-01T14:05:35.406Z,99654.84
2022-10-01T14:09:12.141Z,99651.84
2022-10-01T14:13:01.378Z,99653.05
2022-10-01T14:16:33.811Z,99648.46
2022-10-01T14:20:02.634Z,99641.66
2022-10-01T14:23:38.694Z,99639.69
2022-10-01T14:27:14.886Z,99639.38
2022-10-01T14:30:52.868Z,99638.95
2022-10-01T14:34:35.276Z,99635.11
2022-10-01T14:38:13.833Z,99628.02
2022-10-01T14:41:51.859Z,99625.77
2022-10-01T14:45:22.105Z,99625.46
2022-10-01T14:49:00.987Z,99622.28
2022-10-01T14:52:34.359Z,99617.63
2022-10-01T14:56:07.482Z,99614.96
2022-10-01T14:59:42.007Z,99607.46
2022-10-01T15:03:16.034Z,99601.40
2022-10-01T15:06:47.506Z,99591.48
2022-10-01T15:10:21.404Z,99583.52
2022-10-01T15:13:52.050Z,99575.10
2022-10-01T15:17:25.104Z,99574.98
2022-10-01T15:21:05.803Z,99570.02
2022-10-01T15:24:42.918Z,99565.54
2022-10-01T15:28:31.163Z,99566.66
2022-10-01T15:32:21.465Z,99559.41
2022-10-01T15:35:55.397Z,99547.59
2022-10-01T15:39:34.940Z,99549.92
2022-10-01T15:43:35.798Z,99540.59
2022-10-01T15:47:36.096Z,99534.52
2022-10-01T15:51:07.447Z,99527.38
2022-10-01T15:54:43.116Z,99530.30
2022-10-01T15:58:23.488Z,99530.93
2022-10-01T16:01:50.010Z,99526.59
2022-10-01T16:05:21.625Z,99525.64
2022-10-01T16:09:05.565Z,99525.96
2022-10-01T16:12:33.402Z,99526.09
2022-10-01T16:16:23.073Z,99526.68
2022-10-01T16:19:52.103Z,99522.50
2022-10-01T16:23:42.406Z,99523.95
2022-10-01T16:27:20.524Z,99521.04
2022-10-01T16:30:53.686Z,99523.45
2022-10-01T16:34:25.360Z,99525.20
2022-10-01T16:37:54.581Z,99559.53
2022-10-01T16:41:27.813Z,99601.67
2022-10-01T16:44:57.222Z,99613.18
2022-10-01T16:48:27.728Z,99604.73
2022-10-01T16:51:59.582Z,99604.33
2022-10-01T16:55:30.865Z,99599.85
2022-10-01T16:58:58.937Z,99593.56
2022-10-01T17:02:25.702Z,99589.92
2022-10-01T17:05:59.942Z,99588.55
2022-10-01T17:09:33.500Z,99587.41
2022-10-01T17:13:02.805Z,99581.70
2022-10-01T17:16:32.671Z,99582.23
2022-10-01T17:20:04.186Z,99581.41
2022-10-01T17:23:31.469Z,99580.73
2022-10-01T17:26:58.443Z,99582.33
2022-10-01T17:30:26.470Z,99580.79
2022-10-01T17:34:01.202Z,99582.69
2022-10-01T17:37:29.172Z,99574.00
2022-10-01T17:40:57.007Z,99572.23
2022-10-01T17:44:27.271Z,99569.23
2022-10-01T17:47:55.706Z,99565.67
2022-10-01T17:51:24.114Z,99565.38
2022-10-01T17:54:51.125Z,99559.84
2022-10-01T17:58:25.409Z,99556.73
2022-10-01T18:01:53.882Z,99558.70
2022-10-01T18:05:20.901Z,99561.30
2022-10-01T18:08:56.889Z,99555.73
2022-10-01T18:12:27.596Z,99556.45
2022-10-01T18:16:03.970Z,99558.33
2022-10-01T18:23:19.575Z,99553.80
2022-10-01T18:26:47.749Z,99553.21
2022-10-01T18:30:15.956Z,99558.20
2022-10-01T18:33:47.365Z,99553.99
2022-10-01T18:37:30.364Z,99553.69
2022-10-01T18:41:06.018Z,99551.15
2022-10-01T18:44:33.156Z,99550.30
2022-10-01T18:48:16.749Z,99545.83
2022-10-01T18:51:52.637Z,99545.47
2022-10-01T18:55:48.024Z,99544.73
2022-10-01T18:59:43.987Z,99543.70
2022-10-01T19:03:36.138Z,99539.71
2022-10-01T19:07:23.475Z,99535.96
2022-10-01T19:10:58.808Z,99536.98
2022-10-01T19:14:48.393Z,99534.04
2022-10-01T19:18:42.251Z,99535.30
2022-10-01T19:22:19.166Z,99536.04
2022-10-01T19:25:56.159Z,99536.33
2022-10-01T19:29:40.248Z,99532.41
2022-10-01T19:33:11.018Z,99536.21
2022-10-01T19:36:45.448Z,99535.48
2022-10-01T19:40:22.492Z,99537.80
2022-10-01T19:43:55.084Z,99537.08
2022-10-01T19:47:31.120Z,99537.16
2022-10-01T19:51:03.901Z,99537.16
2022-10-01T19:54:34.627Z,99537.27
2022-10-01T19:58:03.736Z,99534.20
2022-10-01T20:01:40.340Z,99537.39
2022-10-01T20:05:11.716Z,99536.52
2022-10-01T20:08:47.264Z,99535.86
2022-10-01T20:12:27.227Z,99532.63
2022-10-01T20:16:03.019Z,99533.84
2022-10-01T20:19:41.022Z,99535.95
2022-10-01T20:23:29.004Z,99535.81
2022-10-01T20:27:15.371Z,99529.60
2022-10-01T20:30:51.192Z,99532.82
2022-10-01T20:34:29.651Z,99535.98
2022-10-01T20:38:15.120Z,99540.17
2022-10-01T20:41:47.045Z,99539.95
2022-10-01T20:45:21.642Z,99544.28
2022-10-01T20:48:53.157Z,99546.39
2022-10-01T20:52:29.248Z,99543.88
2022-10-01T20:56:06.343Z,99543.23
2022-10-01T20:59:40.245Z,99545.96
2022-10-01T21:03:16.953Z,99545.73
2022-10-01T21:06:48.161Z,99547.62
2022-10-01T21:10:24.500Z,99549.12
2022-10-01T21:13:59.288Z,99551.13
2022-10-01T21:17:42.847Z,99554.85
2022-10-01T21:21:19.687Z,99554.58
2022-10-01T21:25:05.152Z,99559.17
2022-10-01T21:28:48.687Z,99557.35
2022-10-01T21:32:29.231Z,99555.48
2022-10-01T21:36:04.059Z,99558.72
2022-10-01T21:39:38.468Z,99563.33
2022-10-01T21:43:15.563Z,99563.92
2022-10-01T21:46:51.397Z,99563.75
2022-10-01T21:50:35.884Z,99565.45
2022-10-01T21:54:21.385Z,99571.30
2022-10-01T21:58:18.514Z,99575.40
2022-10-01T22:01:56.574Z,99576.10
2022-10-01T22:05:30.461Z,99576.78
2022-10-01T22:09:09.713Z,99583.52
2022-10-01T22:12:40.532Z,99582.46
2022-10-01T22:16:12.490Z,99584.09
2022-10-01T22:19:44.454Z,99586.88
2022-10-01T22:23:13.985Z,99597.25
2022-10-01T22:26:47.275Z,99600.88
2022-10-01T22:30:18.215Z,99598.16
2022-10-01T22:33:54.197Z,99601.21
2022-10-01T22:37:24.756Z,99600.56
2022-10-01T22:40:56.188Z,99603.21
2022-10-01T22:44:24.400Z,99604.11
2022-10-01T22:48:09.193Z,99607.91
2022-10-01T22:51:57.313Z,99606.63
2022-10-01T22:55:32.270Z,99610.77
2022-10-01T22:59:10.955Z,99613.46
2022-10-01T23:02:44.427Z,99618.27
2022-10-01T23:06:21.009Z,99614.08
2022-10-01T23:09:55.967Z,99617.33
2022-10-01T23:13:33.568Z,99617.88
2022-10-01T23:17:09.777Z,99619.24
2022-10-01T23:20:45.326Z,99629.05
2022-10-01T23:24:24.402Z,99626.39
2022-10-01T23:28:09.999Z,99628.65
2022-10-01T23:31:41.978Z,99628.73
2022-10-01T23:35:18.261Z,99632.42
2022-10-01T23:39:10.213Z,99633.46
2022-10-01T23:42:46.612Z,99636.27
2022-10-01T23:46:17.869Z,99633.41
2022-10-01T23:49:51.280Z,99639.77
2022-10-01T23:53:22.910Z,99639.49
2022-10-01T23:56:54.537Z,99639.85
